createdAt,value
2017-09-08T00:01:57.570Z,98811.22
2017-09-08T00:04:24.005Z,98815.03
2017-09-08T00:06:50.440Z,98805.14
2017-09-08T00:09:16.878Z,98813.83
2017-09-08T00:11:43.318Z,98806.22
2017-09-08T00:14:10.566Z,98811.18
2017-09-08T00:16:37.001Z,98809.07
2017-09-08T00:19:03.435Z,98807.48
2017-09-08T00:21:29.869Z,98804.47
2017-09-08T00:23:56.303Z,98799.02
2017-09-08T00:26:22.718Z,98804.08
2017-09-08T00:28:49.161Z,98794.94
2017-09-08T00:31:16.424Z,98801.81
2017-09-08T00:33:42.866Z,98800.84
2017-09-08T00:36:09.400Z,98798.95
2017-09-08T00:38:35.836Z,98801.94
2017-09-08T00:41:02.269Z,98805.26
2017-09-08T00:43:28.703Z,98800.27
2017-09-08T00:45:55.139Z,98806.14
2017-09-08T00:48:22.290Z,98804.23
2017-09-08T00:50:48.724Z,98804.81
2017-09-08T00:53:15.162Z,98805.53
2017-09-08T00:55:41.595Z,98805.95
2017-09-08T00:58:08.029Z,98804.84
2017-09-08T01:00:34.467Z,98802.49
2017-09-08T01:03:00.900Z,98806.98
2017-09-08T01:05:28.155Z,98808.14
2017-09-08T01:07:54.588Z,98806.95
2017-09-08T01:10:21.128Z,98811.55
2017-09-08T01:12:47.561Z,98804.73
2017-09-08T01:15:13.995Z,98805.28
2017-09-08T01:17:40.413Z,98813.84
2017-09-08T01:20:06.854Z,98806.09
2017-09-08T01:22:34.120Z,98808.38
2017-09-08T01:25:00.555Z,98809.41
2017-09-08T01:27:26.989Z,98803.98
2017-09-08T01:29:53.424Z,98804.08
2017-09-08T01:32:19.860Z,98804.61
2017-09-08T01:34:46.294Z,98797.50
2017-09-08T01:37:12.833Z,98797.70
2017-09-08T01:39:39.870Z,98796.97
2017-09-08T01:42:06.312Z,98790.05
2017-09-08T01:44:32.750Z,98793.03
2017-09-08T01:46:59.181Z,98788.66
2017-09-08T01:49:25.622Z,98790.55
2017-09-08T01:51:52.056Z,98789.11
2017-09-08T01:54:18.487Z,98787.74
2017-09-08T01:56:45.685Z,98786.98
2017-09-08T01:59:12.179Z,98777.42
2017-09-08T02:01:38.614Z,98776.59
2017-09-08T02:04:05.098Z,98778.05
2017-09-08T02:06:31.564Z,98775.68
2017-09-08T02:11:24.251Z,98772.98
2017-09-08T02:13:51.391Z,98765.28
2017-09-08T02:16:17.833Z,98768.52
2017-09-08T02:18:44.251Z,98772.31
2017-09-08T02:21:10.707Z,98768.54
2017-09-08T02:23:37.142Z,98766.10
2017-09-08T02:26:03.577Z,98767.98
2017-09-08T02:28:30.012Z,98768.00
2017-09-08T02:30:57.163Z,98758.31
2017-09-08T02:33:23.599Z,98761.77
2017-09-08T02:35:50.033Z,98758.43
2017-09-08T02:38:16.467Z,98755.77
2017-09-08T02:40:42.907Z,98753.25
2017-09-08T02:43:09.340Z,98756.88
2017-09-08T02:45:35.776Z,98759.06
2017-09-08T02:48:02.922Z,98760.81
2017-09-08T02:50:29.360Z,98759.63
2017-09-08T02:52:55.791Z,98765.15
2017-09-08T02:55:22.228Z,98766.51
2017-09-08T02:57:48.664Z,98763.73
2017-09-08T03:00:15.099Z,98755.28
2017-09-08T03:02:41.534Z,98761.25
2017-09-08T03:05:08.788Z,98760.78
2017-09-08T03:07:35.223Z,98764.58
2017-09-08T03:10:01.659Z,98765.58
2017-09-08T03:12:28.092Z,98759.94
2017-09-08T03:14:54.528Z,98761.81
2017-09-08T03:17:20.962Z,98756.20
2017-09-08T03:19:47.397Z,98756.19
2017-09-08T03:22:14.549Z,98753.70
2017-09-08T03:24:41.086Z,98755.09
2017-09-08T03:27:07.521Z,98764.00
2017-09-08T03:29:33.958Z,98759.89
2017-09-08T03:32:00.389Z,98761.39
2017-09-08T03:34:26.825Z,98759.89
2017-09-08T03:36:53.259Z,98766.14
2017-09-08T03:39:20.413Z,98765.84
2017-09-08T03:41:46.847Z,98767.47
2017-09-08T03:44:13.282Z,98768.64
2017-09-08T03:46:39.668Z,98773.95
2017-09-08T03:49:06.154Z,98772.11
2017-09-08T03:51:32.587Z,98770.12
2017-09-08T03:53:59.111Z,98768.05
2017-09-08T03:56:26.229Z,98773.75
2017-09-08T03:58:52.693Z,98774.22
2017-09-08T04:01:19.137Z,98771.24
2017-09-08T04:03:45.581Z,98781.65
2017-09-08T04:06:12.014Z,98778.12
2017-09-08T04:08:38.449Z,98785.00
2017-09-08T04:11:04.885Z,98787.71
2017-09-08T04:13:32.135Z,98785.17
2017-09-08T04:15:58.576Z,98785.27
2017-09-08T04:18:25.111Z,98790.19
2017-09-08T04:20:51.545Z,98781.84
2017-09-08T04:23:17.980Z,98781.42
2017-09-08T04:25:44.416Z,98788.16
2017-09-08T04:28:10.855Z,98782.28
2017-09-08T04:30:38.101Z,98788.48
2017-09-08T04:33:04.540Z,98783.80
2017-09-08T04:35:31.076Z,98786.60
2017-09-08T04:37:57.512Z,98790.97
2017-09-08T04:40:23.948Z,98797.84
2017-09-08T04:42:50.383Z,98797.33
2017-09-08T04:45:16.816Z,98797.19
2017-09-08T04:47:43.970Z,98799.06
2017-09-08T04:50:10.406Z,98803.97
2017-09-08T04:52:36.838Z,98799.95
2017-09-08T04:55:03.275Z,98803.10
2017-09-08T04:57:29.669Z,98803.53
2017-09-08T04:59:56.144Z,98804.59
2017-09-08T05:02:22.578Z,98804.50
2017-09-08T05:04:49.834Z,98809.05
2017-09-08T05:07:16.267Z,98809.30
2017-09-08T05:09:42.700Z,98815.89
2017-09-08T05:12:09.237Z,98826.05
2017-09-08T05:14:35.674Z,98846.66
2017-09-08T05:17:02.210Z,98851.55
2017-09-08T05:19:28.644Z,98856.39
2017-09-08T05:21:55.791Z,98852.99
2017-09-08T05:24:22.233Z,98854.14
2017-09-08T05:26:48.663Z,98860.30
2017-09-08T05:29:15.103Z,98857.45
2017-09-08T05:31:41.537Z,98864.33
2017-09-08T05:34:07.971Z,98860.41
2017-09-08T05:36:34.406Z,98859.32
2017-09-08T05:39:01.353Z,98863.41
2017-09-08T05:41:27.790Z,98862.28
2017-09-08T05:43:54.220Z,98862.02
2017-09-08T05:46:20.841Z,98865.41
2017-09-08T05:48:47.282Z,98872.80
2017-09-08T05:51:13.964Z,98871.86
2017-09-08T05:53:40.698Z,98870.56
2017-09-08T05:56:07.409Z,98872.66
2017-09-08T05:58:33.856Z,98877.99
2017-09-08T06:01:00.496Z,98880.23
2017-09-08T06:05:58.076Z,98887.17
2017-09-08T06:08:25.372Z,98888.80
2017-09-08T06:10:51.865Z,98874.84
2017-09-08T06:13:18.404Z,98886.89
2017-09-08T06:15:46.172Z,98889.75
2017-09-08T06:18:12.813Z,98887.33
2017-09-08T06:20:39.924Z,98891.05
2017-09-08T06:23:06.603Z,98894.19
2017-09-08T06:25:33.445Z,98889.91
2017-09-08T06:27:59.837Z,98901.28
2017-09-08T06:30:26.316Z,98901.00
2017-09-08T06:32:53.160Z,98900.70
2017-09-08T06:35:19.646Z,98902.42
2017-09-08T06:37:46.134Z,98906.14
2017-09-08T06:40:12.871Z,98909.80
2017-09-08T06:42:39.412Z,98913.38
2017-09-08T06:45:05.949Z,98916.43
2017-09-08T06:47:32.388Z,98916.95
2017-09-08T06:49:59.330Z,98918.50
2017-09-08T06:52:26.687Z,98923.61
2017-09-08T06:54:53.224Z,98920.38
2017-09-08T06:57:20.069Z,98918.73
2017-09-08T06:59:46.606Z,98924.13
2017-09-08T07:02:13.112Z,98916.13
2017-09-08T07:04:39.681Z,98917.14
2017-09-08T07:07:06.116Z,98921.96
2017-09-08T07:09:32.654Z,98917.63
2017-09-08T07:11:59.602Z,98912.39
2017-09-08T07:14:26.449Z,98920.42
2017-09-08T07:16:52.982Z,98923.14
2017-09-08T07:19:19.669Z,98923.79
2017-09-08T07:21:46.161Z,98919.64
2017-09-08T07:24:12.699Z,98916.17
2017-09-08T07:26:39.849Z,98917.97
2017-09-08T07:29:07.000Z,98927.25
2017-09-08T07:31:33.538Z,98921.63
2017-09-08T07:34:00.382Z,98923.00
2017-09-08T07:36:26.918Z,98926.30
2017-09-08T07:38:53.557Z,98929.41
2017-09-08T07:41:20.301Z,98930.41
2017-09-08T07:43:46.837Z,98918.05
2017-09-08T07:46:13.358Z,98916.64
2017-09-08T07:48:40.322Z,98917.19
2017-09-08T07:51:07.140Z,98914.84
2017-09-08T07:53:33.586Z,98919.26
2017-09-08T07:56:00.341Z,98918.91
2017-09-08T07:58:26.870Z,98926.84
2017-09-08T08:00:53.316Z,98920.73
2017-09-08T08:03:20.162Z,98927.47
2017-09-08T08:05:46.700Z,98922.44
2017-09-08T08:08:13.213Z,98923.73
2017-09-08T08:10:40.181Z,98907.63
2017-09-08T08:13:06.718Z,98905.95
2017-09-08T08:15:33.257Z,98906.66
2017-09-08T08:18:00.305Z,98909.52
2017-09-08T08:20:26.843Z,98902.50
2017-09-08T08:22:53.382Z,98897.02
2017-09-08T08:25:20.123Z,98892.17
2017-09-08T08:27:46.555Z,98889.83
2017-09-08T08:30:13.093Z,98885.72
2017-09-08T08:32:40.744Z,98883.96
2017-09-08T08:35:07.165Z,98882.77
2017-09-08T08:37:33.605Z,98877.83
2017-09-08T08:40:00.165Z,98885.34
2017-09-08T08:42:26.694Z,98881.23
2017-09-08T08:44:53.547Z,98883.63
2017-09-08T08:47:20.277Z,98890.34
2017-09-08T08:49:46.825Z,98891.53
2017-09-08T08:52:13.367Z,98884.80
2017-09-08T08:54:40.105Z,98885.42
2017-09-08T08:57:06.597Z,98878.30
2017-09-08T08:59:33.163Z,98873.95
2017-09-08T09:02:00.026Z,98866.64
2017-09-08T09:04:26.563Z,98866.25
2017-09-08T09:06:53.148Z,98861.11
2017-09-08T09:09:20.239Z,98866.96
2017-09-08T09:11:46.787Z,98861.26
2017-09-08T09:14:13.326Z,98868.22
2017-09-08T09:16:40.069Z,98860.73
2017-09-08T09:19:06.860Z,98864.08
2017-09-08T09:21:33.327Z,98862.69
2017-09-08T09:23:59.884Z,98864.44
2017-09-08T09:26:26.318Z,98863.88
2017-09-08T09:28:52.858Z,98855.19
2017-09-08T09:31:19.703Z,98862.47
2017-09-08T09:33:46.239Z,98854.93
2017-09-08T09:36:12.735Z,98858.66
2017-09-08T09:38:39.621Z,98863.92
2017-09-08T09:41:06.048Z,98861.77
2017-09-08T09:43:32.596Z,98865.34
2017-09-08T09:45:59.436Z,98865.28
2017-09-08T09:48:25.871Z,98863.11
2017-09-08T09:50:52.594Z,98870.41
2017-09-08T09:53:19.567Z,98863.14
2017-09-08T09:55:46.180Z,98862.35
2017-09-08T09:58:12.636Z,98852.11
2017-09-08T10:00:39.275Z,98844.81
2017-09-08T10:03:05.760Z,98851.66
2017-09-08T10:05:32.454Z,98858.91
2017-09-08T10:07:59.295Z,98849.63
2017-09-08T10:10:25.834Z,98852.38
2017-09-08T10:12:52.370Z,98852.84
2017-09-08T10:15:19.521Z,98850.92
2017-09-08T10:17:45.915Z,98858.53
2017-09-08T10:20:12.443Z,98854.65
2017-09-08T10:22:39.748Z,98853.71
2017-09-08T10:25:06.184Z,98849.33
2017-09-08T10:27:32.720Z,98845.95
2017-09-08T10:29:59.565Z,98840.98
2017-09-08T10:32:25.998Z,98843.75
2017-09-08T10:34:52.497Z,98836.00
2017-09-08T10:37:19.076Z,98831.66
2017-09-08T10:39:45.611Z,98829.11
2017-09-08T10:42:12.056Z,98819.86
2017-09-08T10:44:38.788Z,98822.78
2017-09-08T10:47:05.530Z,98816.69
2017-09-08T10:49:32.170Z,98815.01
2017-09-08T10:51:59.116Z,98813.95
2017-09-08T10:54:25.609Z,98815.09
2017-09-08T10:56:52.090Z,98808.77
2017-09-08T10:59:18.936Z,98799.47
2017-09-08T11:01:45.368Z,98799.79
2017-09-08T11:04:11.757Z,98792.50
2017-09-08T11:06:39.262Z,98784.00
2017-09-08T11:09:05.697Z,98789.41
2017-09-08T11:11:32.133Z,98784.45
2017-09-08T11:13:58.976Z,98784.06
2017-09-08T11:16:25.411Z,98789.63
2017-09-08T11:18:53.075Z,98782.90
2017-09-08T11:21:19.711Z,98782.39
2017-09-08T11:23:46.149Z,98780.81
2017-09-08T11:26:12.670Z,98777.70
2017-09-08T11:28:39.313Z,98781.73
2017-09-08T11:31:05.863Z,98774.93
2017-09-08T11:33:32.301Z,98774.66
2017-09-08T11:35:59.039Z,98766.59
2017-09-08T11:38:26.757Z,98766.02
2017-09-08T11:40:53.549Z,98770.64
2017-09-08T11:43:20.290Z,98765.14
2017-09-08T11:45:47.144Z,98758.73
2017-09-08T11:48:13.572Z,98764.84
2017-09-08T11:50:40.352Z,98750.48
2017-09-08T11:53:06.855Z,98749.98
2017-09-08T11:55:33.489Z,98753.20
2017-09-08T11:58:00.204Z,98749.44
2017-09-08T12:00:26.752Z,98744.91
2017-09-08T12:02:53.192Z,98741.76
2017-09-08T12:05:21.077Z,98739.35
2017-09-08T12:07:47.610Z,98739.26
2017-09-08T12:10:14.149Z,98743.97
2017-09-08T12:12:41.402Z,98745.45
2017-09-08T12:15:08.242Z,98742.25
2017-09-08T12:17:34.988Z,98739.22
2017-09-08T12:20:02.139Z,98736.30
2017-09-08T12:22:29.395Z,98732.81
2017-09-08T12:24:56.056Z,98740.88
2017-09-08T12:27:22.980Z,98737.94
2017-09-08T12:29:49.826Z,98742.94
2017-09-08T12:32:16.259Z,98734.67
2017-09-08T12:34:42.795Z,98734.97
2017-09-08T12:37:09.331Z,98738.38
2017-09-08T12:39:36.600Z,98739.64
2017-09-08T12:42:03.432Z,98736.42
2017-09-08T12:44:29.866Z,98733.14
2017-09-08T12:46:56.304Z,98733.16
2017-09-08T12:49:22.839Z,98733.56
2017-09-08T12:51:49.376Z,98727.95
2017-09-08T12:54:15.918Z,98729.45
2017-09-08T12:56:42.563Z,98729.98
2017-09-08T12:59:09.096Z,98731.37
2017-09-08T13:01:35.580Z,98717.31
2017-09-08T13:04:03.765Z,98711.69
2017-09-08T13:06:30.345Z,98703.32
2017-09-08T13:08:56.877Z,98704.83
2017-09-08T13:11:23.930Z,98702.91
2017-09-08T13:13:50.466Z,98699.55
2017-09-08T13:16:17.005Z,98698.07
2017-09-08T13:18:43.741Z,98704.41
2017-09-08T13:21:10.284Z,98699.20
2017-09-08T13:23:36.821Z,98700.55
2017-09-08T13:26:03.648Z,98696.30
2017-09-08T13:28:30.130Z,98696.39
2017-09-08T13:30:56.635Z,98693.78
2017-09-08T13:33:23.377Z,98690.86
2017-09-08T13:35:50.324Z,98684.66
2017-09-08T13:38:16.964Z,98683.94
2017-09-08T13:40:44.042Z,98675.99
2017-09-08T13:43:10.655Z,98688.64
2017-09-08T13:45:37.617Z,98688.70
2017-09-08T13:48:04.118Z,98686.16
2017-09-08T13:50:30.777Z,98683.69
2017-09-08T13:52:57.417Z,98679.75
2017-09-08T13:55:24.060Z,98673.95
2017-09-08T13:57:50.596Z,98674.70
2017-09-08T14:00:17.340Z,98679.51
2017-09-08T14:02:43.975Z,98675.26
2017-09-08T14:05:10.616Z,98674.45
2017-09-08T14:07:37.357Z,98670.52
2017-09-08T14:10:04.202Z,98668.74
2017-09-08T14:12:30.945Z,98673.13
2017-09-08T14:14:57.482Z,98674.39
2017-09-08T14:17:24.429Z,98670.23
2017-09-08T14:19:51.067Z,98660.66
2017-09-08T14:22:17.504Z,98663.80
2017-09-08T14:24:43.936Z,98674.20
2017-09-08T14:27:10.986Z,98668.78
2017-09-08T14:29:37.542Z,98666.62
2017-09-08T14:32:04.265Z,98657.11
2017-09-08T14:34:31.008Z,98652.13
2017-09-08T14:36:57.852Z,98649.75
2017-09-08T14:39:24.493Z,98653.80
2017-09-08T14:41:51.132Z,98653.62
2017-09-08T14:44:17.876Z,98645.34
2017-09-08T14:46:44.718Z,98639.97
2017-09-08T14:49:11.241Z,98646.74
2017-09-08T14:51:37.682Z,98641.44
2017-09-08T14:54:04.126Z,98643.31
2017-09-08T14:56:30.560Z,98647.37
2017-09-08T14:58:56.996Z,98639.97
2017-09-08T15:01:23.432Z,98642.82
2017-09-08T15:03:49.864Z,98638.09
2017-09-08T15:06:16.709Z,98644.09
2017-09-08T15:08:43.145Z,98649.82
2017-09-08T15:11:09.581Z,98640.38
2017-09-08T15:13:36.014Z,98642.92
2017-09-08T15:16:02.485Z,98640.29
2017-09-08T15:18:28.986Z,98636.13
2017-09-08T15:20:55.420Z,98643.66
2017-09-08T15:23:21.943Z,98639.58
2017-09-08T15:25:48.393Z,98639.50
2017-09-08T15:28:14.828Z,98631.97
2017-09-08T15:30:41.247Z,98633.30
2017-09-08T15:33:07.692Z,98628.14
2017-09-08T15:35:34.134Z,98630.91
2017-09-08T15:38:01.278Z,98631.05
2017-09-08T15:40:27.719Z,98633.83
2017-09-08T15:42:54.157Z,98632.53
2017-09-08T15:45:20.692Z,98633.59
2017-09-08T15:47:47.198Z,98636.77
2017-09-08T15:50:13.665Z,98641.53
2017-09-08T15:52:40.098Z,98634.63
2017-09-08T15:55:07.250Z,98636.16
2017-09-08T15:57:33.685Z,98631.30
2017-09-08T16:00:00.120Z,98635.45
2017-09-08T16:02:26.543Z,98631.13
2017-09-08T16:04:52.995Z,98630.03
2017-09-08T16:07:19.425Z,98631.11
2017-09-08T16:09:45.860Z,98634.70
2017-09-08T16:12:13.114Z,98633.84
2017-09-08T16:14:39.550Z,98635.69
2017-09-08T16:17:05.985Z,98634.47
2017-09-08T16:19:32.418Z,98628.81
2017-09-08T16:21:58.854Z,98628.30
2017-09-08T16:24:25.288Z,98627.61
2017-09-08T16:26:51.723Z,98627.92
2017-09-08T16:29:18.874Z,98627.66
2017-09-08T16:31:45.309Z,98632.94
2017-09-08T16:34:11.745Z,98634.20
2017-09-08T16:36:38.181Z,98636.65
2017-09-08T16:39:04.718Z,98628.06
2017-09-08T16:41:31.153Z,98627.17
2017-09-08T16:43:57.551Z,98635.35
2017-09-08T16:46:24.739Z,98639.17
2017-09-08T16:48:51.179Z,98643.78
2017-09-08T16:51:17.565Z,98640.35
2017-09-08T16:53:44.044Z,98634.48
2017-09-08T16:56:10.478Z,98637.91
2017-09-08T16:58:37.015Z,98633.66
2017-09-08T17:01:03.450Z,98639.83
2017-09-08T17:03:30.706Z,98641.28
2017-09-08T17:05:57.141Z,98648.41
2017-09-08T17:08:23.524Z,98643.70
2017-09-08T17:10:50.011Z,98649.46
2017-09-08T17:13:16.430Z,98652.86
2017-09-08T17:15:42.881Z,98651.46
2017-09-08T17:18:09.340Z,98646.53
2017-09-08T17:20:36.464Z,98653.46
2017-09-08T17:23:03.004Z,98661.56
2017-09-08T17:25:29.420Z,98657.42
2017-09-08T17:27:55.874Z,98657.64
2017-09-08T17:30:22.310Z,98666.69
2017-09-08T17:32:48.744Z,98662.78
2017-09-08T17:35:15.177Z,98669.63
2017-09-08T17:37:42.259Z,98669.25
2017-09-08T17:40:08.763Z,98669.42
2017-09-08T17:42:35.198Z,98671.00
2017-09-08T17:45:01.634Z,98674.14
2017-09-08T17:47:28.070Z,98675.86
2017-09-08T17:49:54.507Z,98676.61
2017-09-08T17:52:20.939Z,98677.54
2017-09-08T17:54:48.090Z,98692.88
2017-09-08T17:57:14.526Z,98690.11
2017-09-08T17:59:40.947Z,98698.32
2017-09-08T18:02:07.390Z,98699.53
2017-09-08T18:04:33.829Z,98703.05
2017-09-08T18:07:00.264Z,98704.79
2017-09-08T18:09:26.698Z,98705.75
2017-09-08T18:11:53.851Z,98706.73
2017-09-08T18:14:20.287Z,98706.70
2017-09-08T18:16:46.724Z,98698.63
2017-09-08T18:19:13.155Z,98701.14
2017-09-08T18:21:39.544Z,98701.86
2017-09-08T18:24:06.025Z,98702.60
2017-09-08T18:26:32.466Z,98706.92
2017-09-08T18:28:59.714Z,98699.83
2017-09-08T18:31:26.149Z,98703.08
2017-09-08T18:33:52.585Z,98702.20
2017-09-08T18:36:19.116Z,98703.08
2017-09-08T18:38:45.658Z,98700.48
2017-09-08T18:41:12.092Z,98700.63
2017-09-08T18:43:38.530Z,98708.22
2017-09-08T18:46:05.782Z,98708.77
2017-09-08T18:48:32.219Z,98710.46
2017-09-08T18:50:58.652Z,98717.12
2017-09-08T18:53:25.086Z,98719.79
2017-09-08T18:55:51.522Z,98716.95
2017-09-08T18:58:17.962Z,98724.33
2017-09-08T19:00:44.390Z,98723.19
2017-09-08T19:03:11.649Z,98720.65
2017-09-08T19:05:38.084Z,98720.08
2017-09-08T19:08:04.515Z,98735.43
2017-09-08T19:10:30.950Z,98739.14
2017-09-08T19:12:57.385Z,98748.31
2017-09-08T19:15:23.822Z,98752.26
2017-09-08T19:17:50.258Z,98751.63
2017-09-08T19:20:17.513Z,98750.17
2017-09-08T19:22:43.945Z,98744.05
2017-09-08T19:25:10.381Z,98747.91
2017-09-08T19:27:36.815Z,98747.75
2017-09-08T19:30:03.253Z,98753.59
2017-09-08T19:32:29.691Z,98753.03
2017-09-08T19:34:56.117Z,98751.94
2017-09-08T19:37:23.372Z,98749.97
2017-09-08T19:39:49.806Z,98751.45
2017-09-08T19:42:16.242Z,98752.31
2017-09-08T19:44:42.629Z,98745.69
2017-09-08T19:47:09.111Z,98753.18
2017-09-08T19:49:35.501Z,98757.58
2017-09-08T19:52:01.982Z,98755.14
2017-09-08T19:54:29.131Z,98753.80
2017-09-08T19:56:55.521Z,98755.52
2017-09-08T19:59:22.007Z,98751.82
2017-09-08T20:01:48.439Z,98760.91
2017-09-08T20:04:14.872Z,98755.69
2017-09-08T20:06:41.308Z,98758.02
2017-09-08T20:09:07.742Z,98757.73
2017-09-08T20:11:34.983Z,98750.98
2017-09-08T20:14:01.425Z,98750.37
2017-09-08T20:16:27.866Z,98757.91
2017-09-08T20:18:54.269Z,98756.50
2017-09-08T20:21:20.735Z,98758.63
2017-09-08T20:23:47.170Z,98762.27
2017-09-08T20:26:13.606Z,98762.63
2017-09-08T20:28:40.757Z,98756.22
2017-09-08T20:31:07.189Z,98755.55
2017-09-08T20:33:33.627Z,98753.41
2017-09-08T20:36:00.062Z,98754.47
2017-09-08T20:38:26.498Z,98746.14
2017-09-08T20:40:52.932Z,98745.99
2017-09-08T20:43:19.368Z,98748.27
2017-09-08T20:45:46.518Z,98748.92
2017-09-08T20:48:12.954Z,98751.16
2017-09-08T20:50:39.368Z,98753.52
2017-09-08T20:53:05.814Z,98755.24
2017-09-08T20:55:32.155Z,98760.63
2017-09-08T20:57:58.589Z,98761.59
2017-09-08T21:00:25.025Z,98764.30
2017-09-08T21:02:52.177Z,98757.05
2017-09-08T21:05:18.614Z,98772.51
2017-09-08T21:07:45.019Z,98771.34
2017-09-08T21:10:11.494Z,98774.09
2017-09-08T21:12:37.919Z,98773.92
2017-09-08T21:15:04.353Z,98769.84
2017-09-08T21:17:30.788Z,98772.63
2017-09-08T21:19:57.940Z,98768.15
2017-09-08T21:22:24.375Z,98777.04
2017-09-08T21:24:50.912Z,98779.30
2017-09-08T21:27:17.345Z,98781.54
2017-09-08T21:29:43.891Z,98789.25
2017-09-08T21:32:10.317Z,98797.11
2017-09-08T21:34:36.752Z,98798.97
2017-09-08T21:37:03.904Z,98801.56
2017-09-08T21:39:30.339Z,98806.85
2017-09-08T21:41:56.773Z,98805.42
2017-09-08T21:44:23.209Z,98808.62
2017-09-08T21:46:49.643Z,98808.44
2017-09-08T21:49:16.078Z,98810.60
2017-09-08T21:51:42.513Z,98816.27
2017-09-08T21:54:09.768Z,98813.14
2017-09-08T21:56:36.207Z,98814.79
2017-09-08T21:59:02.637Z,98815.52
2017-09-08T22:01:29.029Z,98808.82
2017-09-08T22:03:55.480Z,98808.28
2017-09-08T22:06:21.946Z,98807.58
2017-09-08T22:08:48.378Z,98808.06
2017-09-08T22:11:15.631Z,98806.48
2017-09-08T22:13:42.062Z,98795.69
2017-09-08T22:16:08.489Z,98799.34
2017-09-08T22:18:34.938Z,98801.73
2017-09-08T22:21:01.376Z,98794.66
2017-09-08T22:23:27.807Z,98800.70
2017-09-08T22:25:54.247Z,98794.06
2017-09-08T22:28:21.496Z,98788.94
2017-09-08T22:30:47.930Z,98784.58
2017-09-08T22:33:14.364Z,98785.31
2017-09-08T22:35:40.901Z,98793.98
2017-09-08T22:38:07.337Z,98792.63
2017-09-08T22:40:33.769Z,98792.20
2017-09-08T22:43:00.208Z,98790.48
2017-09-08T22:45:27.361Z,98780.18
2017-09-08T22:47:53.793Z,98781.19
2017-09-08T22:50:20.228Z,98782.83
2017-09-08T22:52:46.663Z,98777.52
2017-09-08T22:55:13.098Z,98780.72
2017-09-08T22:57:39.488Z,98774.55
2017-09-08T23:00:05.968Z,98774.05
2017-09-08T23:02:33.119Z,98773.85
2017-09-08T23:04:59.509Z,98775.09
2017-09-08T23:07:25.989Z,98773.36
2017-09-08T23:09:52.404Z,98767.43
2017-09-08T23:12:18.859Z,98760.50
2017-09-08T23:14:45.293Z,98756.47
2017-09-08T23:17:11.733Z,98749.77
2017-09-08T23:19:38.975Z,98752.86
2017-09-08T23:22:05.414Z,98747.79
2017-09-08T23:24:31.856Z,98749.91
2017-09-08T23:26:58.289Z,98749.41
2017-09-08T23:29:24.725Z,98747.18
2017-09-08T23:31:51.157Z,98746.56
2017-09-08T23:34:17.597Z,98738.25
2017-09-08T23:36:44.745Z,98732.42
2017-09-08T23:39:11.178Z,98740.64
2017-09-08T23:41:37.614Z,98729.70
2017-09-08T23:44:04.049Z,98732.37
2017-09-08T23:46:30.483Z,98731.48
2017-09-08T23:48:56.921Z,98724.24
2017-09-08T23:51:23.353Z,98731.81
2017-09-08T23:53:50.570Z,98732.59
2017-09-08T23:56:17.044Z,98730.55
2017-09-08T23:58:43.478Z,98732.70
